Time;durP1;ratioP1;P1;durP2;ratioP2;P2;SDS_P1;SDS_P2;PMS_P1;PMS_P2;Temp;Humidity;BMP_temperature;BMP_pressure;BME280_temperature;BME280_humidity;BME280_pressure;Samples;Min_cycle;Max_cycle;Signal;HPM_P1;HPM_P2
2021/12/19 00:04:14;;;;;;;23.77;16.90;;;4.70;99.90;;;;;;5100607;28;20401;-73
2021/12/19 00:09:26;;;;;;;25.13;18.73;;;4.60;99.90;;;;;;5091213;28;20112;-72
2021/12/19 00:11:53;;;;;;;27.60;20.63;;;4.60;99.90;;;;;;5097682;28;20029;-73
2021/12/19 00:14:20;;;;;;;23.77;18.10;;;4.60;99.90;;;;;;5091365;28;20036;-73
2021/12/19 00:16:46;;;;;;;30.42;19.50;;;4.70;99.90;;;;;;5099103;28;20024;-72
2021/12/19 00:19:12;;;;;;;32.35;21.17;;;4.60;99.90;;;;;;5103986;28;20028;-73
2021/12/19 00:21:40;;;;;;;29.85;19.35;;;4.70;99.90;;;;;;5093659;28;20032;-72
2021/12/19 00:24:06;;;;;;;27.85;19.30;;;4.60;99.90;;;;;;5098933;28;20024;-72
2021/12/19 00:26:32;;;;;;;33.45;21.13;;;4.60;99.90;;;;;;5097717;28;20035;-73
2021/12/19 00:29:00;;;;;;;34.28;21.83;;;4.70;99.90;;;;;;5092670;28;20385;-72
2021/12/19 00:31:26;;;;;;;36.13;22.38;;;4.60;99.90;;;;;;5098838;28;20068;-72
2021/12/19 00:33:52;;;;;;;31.30;24.40;;;4.60;99.90;;;;;;5101485;28;20102;-72
2021/12/19 00:36:18;;;;;;;29.58;20.88;;;4.60;99.90;;;;;;5077579;28;20107;-72
2021/12/19 00:38:45;;;;;;;31.92;23.67;;;4.50;99.90;;;;;;5093460;28;20053;-73
2021/12/19 00:41:11;;;;;;;30.55;23.25;;;4.40;99.90;;;;;;5088809;28;20039;-73
2021/12/19 00:43:45;;;;;;;33.85;22.92;;;4.40;99.90;;;;;;5102558;28;20357;-72
2021/12/19 00:46:14;;;;;;;38.78;24.35;;;4.40;99.90;;;;;;5096539;28;20470;-72
2021/12/19 00:48:42;;;;;;;36.22;24.08;;;4.50;99.90;;;;;;5099756;28;20028;-72
2021/12/19 00:51:10;;;;;;;32.60;23.00;;;4.60;99.90;;;;;;5094229;28;20042;-71
2021/12/19 00:53:37;;;;;;;38.38;24.10;;;4.60;99.90;;;;;;5092349;28;20115;-73
2021/12/19 00:56:03;;;;;;;32.42;22.38;;;4.60;99.90;;;;;;5091136;28;20030;-73
2021/12/19 00:58:29;;;;;;;33.10;22.40;;;4.50;99.90;;;;;;5094660;28;20459;-73
2021/12/19 01:00:55;;;;;;;36.03;24.90;;;4.60;99.90;;;;;;5094295;28;20051;-71
2021/12/19 01:03:21;;;;;;;37.13;23.90;;;4.50;99.90;;;;;;5095943;28;20027;-72
2021/12/19 01:05:48;;;;;;;35.88;25.33;;;4.60;99.90;;;;;;5096463;28;20024;-72
2021/12/19 01:08:14;;;;;;;32.42;22.52;;;4.50;99.90;;;;;;5104091;28;20043;-73
2021/12/19 01:10:42;;;;;;;33.58;21.80;;;4.50;99.90;;;;;;5087774;28;20036;-73
2021/12/19 01:13:09;;;;;;;29.88;21.77;;;4.60;99.90;;;;;;5094045;28;20110;-72
2021/12/19 01:15:35;;;;;;;39.83;22.88;;;4.60;99.90;;;;;;5098359;28;20036;-72
2021/12/19 01:18:01;;;;;;;27.05;20.73;;;4.50;99.90;;;;;;5100647;28;20023;-73
2021/12/19 01:20:28;;;;;;;28.45;21.08;;;4.50;99.90;;;;;;5096130;28;20063;-73
2021/12/19 01:22:54;;;;;;;28.77;21.75;;;4.40;99.90;;;;;;5093916;28;20036;-71
2021/12/19 01:25:21;;;;;;;32.47;22.98;;;4.40;99.90;;;;;;5101303;28;20099;-73
2021/12/19 01:27:47;;;;;;;31.27;22.65;;;4.30;99.90;;;;;;5097513;28;20496;-72
2021/12/19 01:30:14;;;;;;;27.77;19.65;;;4.40;99.90;;;;;;5094705;28;20027;-73
2021/12/19 01:32:41;;;;;;;32.10;20.63;;;4.40;99.90;;;;;;5088020;28;20038;-71
2021/12/19 01:35:09;;;;;;;32.20;22.50;;;4.50;99.90;;;;;;5100047;28;20556;-71
2021/12/19 01:37:35;;;;;;;31.10;23.92;;;4.40;99.90;;;;;;5088113;28;20086;-72
2021/12/19 01:40:01;;;;;;;31.15;24.10;;;4.40;99.90;;;;;;5083866;28;20024;-72
2021/12/19 01:42:32;;;;;;;32.10;24.08;;;4.30;99.90;;;;;;5088788;28;20051;-72
2021/12/19 01:44:58;;;;;;;36.97;24.27;;;4.30;99.90;;;;;;5100447;28;20494;-72
2021/12/19 01:47:24;;;;;;;31.23;22.88;;;4.30;99.90;;;;;;5092796;28;20095;-75
2021/12/19 01:49:49;;;;;;;36.13;24.75;;;4.30;99.90;;;;;;5104698;28;20099;-72
2021/12/19 01:52:15;;;;;;;30.25;21.77;;;4.30;99.90;;;;;;5094372;28;20028;-72
2021/12/19 01:54:41;;;;;;;37.00;24.67;;;4.30;99.90;;;;;;5100773;28;20028;-72
2021/12/19 01:57:06;;;;;;;39.83;25.55;;;4.30;99.90;;;;;;5084985;28;20036;-73
2021/12/19 01:59:32;;;;;;;40.28;23.40;;;4.30;99.90;;;;;;5086297;28;20036;-71
2021/12/19 02:01:58;;;;;;;36.85;24.63;;;4.30;99.90;;;;;;5096431;28;20036;-72
2021/12/19 02:04:30;;;;;;;37.67;25.65;;;4.30;99.90;;;;;;5095443;28;20019;-72
2021/12/19 02:06:55;;;;;;;38.60;25.70;;;4.30;99.90;;;;;;5094863;28;20050;-72
2021/12/19 02:09:21;;;;;;;40.00;26.00;;;4.30;99.90;;;;;;5091513;28;20494;-72
2021/12/19 02:11:47;;;;;;;36.80;25.73;;;4.40;99.90;;;;;;5099431;28;20055;-72
2021/12/19 02:14:13;;;;;;;41.58;25.90;;;4.30;99.90;;;;;;5095171;28;20137;-73
2021/12/19 02:16:40;;;;;;;38.67;27.90;;;4.30;99.90;;;;;;5100579;28;20536;-72
2021/12/19 02:19:07;;;;;;;35.10;26.52;;;4.20;99.90;;;;;;5098059;28;20107;-71
2021/12/19 02:21:34;;;;;;;40.63;26.42;;;4.10;99.90;;;;;;5094355;28;20075;-72
2021/12/19 02:24:01;;;;;;;40.67;27.15;;;4.10;99.90;;;;;;5093741;28;20084;-73
2021/12/19 02:26:27;;;;;;;42.83;26.60;;;4.20;99.90;;;;;;5090369;28;20056;-71
2021/12/19 02:28:53;;;;;;;38.00;27.42;;;4.10;99.90;;;;;;5094967;28;20047;-72
2021/12/19 02:31:20;;;;;;;37.90;27.27;;;4.10;99.90;;;;;;5091067;28;20023;-72
2021/12/19 02:34:00;;;;;;;37.92;25.65;;;4.10;99.90;;;;;;5095699;28;20043;-71
2021/12/19 02:50:07;;;;;;;44.28;26.92;;;4.20;99.90;;;;;;5089999;28;20073;-70
2021/12/19 02:52:33;;;;;;;43.47;27.23;;;4.20;99.90;;;;;;5089538;28;20549;-71
2021/12/19 02:54:59;;;;;;;39.55;27.35;;;4.30;99.90;;;;;;5096239;28;20031;-70
2021/12/19 02:57:24;;;;;;;40.22;26.67;;;4.30;99.90;;;;;;5086428;28;20107;-71
2021/12/19 02:59:50;;;;;;;36.95;28.52;;;4.20;99.90;;;;;;5101398;28;20496;-70
2021/12/19 03:02:17;;;;;;;37.38;26.92;;;4.20;99.90;;;;;;5095657;28;20559;-71
2021/12/19 03:04:58;;;;;;;43.92;29.60;;;4.20;99.90;;;;;;5097041;28;20206;-69
2021/12/19 03:07:25;;;;;;;42.85;27.88;;;4.30;99.90;;;;;;5091809;28;20035;-70
2021/12/19 03:18:07;;;;;;;37.08;26.13;;;4.50;99.90;;;;;;5096238;28;20089;-70
2021/12/19 03:20:34;;;;;;;40.70;27.05;;;4.60;99.90;;;;;;5097439;28;20020;-70
2021/12/19 03:23:01;;;;;;;52.95;29.73;;;4.60;99.90;;;;;;5091252;28;20026;-71
2021/12/19 03:25:29;;;;;;;47.15;31.40;;;4.60;99.90;;;;;;5099711;28;20497;-71
2021/12/19 03:27:55;;;;;;;46.47;31.02;;;4.60;99.90;;;;;;5101102;28;20063;-70
2021/12/19 03:30:21;;;;;;;50.63;30.05;;;4.60;99.90;;;;;;5095252;28;20027;-71
2021/12/19 03:32:47;;;;;;;46.55;31.25;;;4.60;99.90;;;;;;5094912;28;20028;-70
2021/12/19 03:35:13;;;;;;;38.03;28.35;;;4.60;99.90;;;;;;5086641;28;20473;-70
2021/12/19 03:37:39;;;;;;;42.40;28.85;;;4.50;99.90;;;;;;5085435;28;20080;-70
2021/12/19 03:40:11;;;;;;;43.65;29.83;;;4.50;99.90;;;;;;5092560;28;20032;-70
2021/12/19 03:42:44;;;;;;;41.33;29.90;;;4.50;99.90;;;;;;5095500;28;20050;-69
2021/12/19 03:45:13;;;;;;;46.22;30.35;;;4.50;99.90;;;;;;5096600;28;20123;-71
2021/12/19 03:47:40;;;;;;;41.53;29.92;;;4.60;99.90;;;;;;5089240;28;20153;-69
2021/12/19 03:50:08;;;;;;;45.28;30.48;;;4.60;99.90;;;;;;5098236;28;20024;-71
2021/12/19 03:52:34;;;;;;;43.03;29.67;;;4.50;99.90;;;;;;5093647;28;20047;-72
2021/12/19 03:55:00;;;;;;;41.67;30.60;;;4.50;99.90;;;;;;5092108;28;20372;-70
2021/12/19 03:57:26;;;;;;;44.50;30.15;;;4.50;99.90;;;;;;5093059;28;20438;-71
2021/12/19 03:59:52;;;;;;;41.92;30.40;;;4.60;99.90;;;;;;5099649;28;20109;-71
2021/12/19 04:02:26;;;;;;;46.70;32.58;;;4.60;99.90;;;;;;5103729;28;20019;-71
2021/12/19 04:04:54;;;;;;;44.17;28.20;;;4.70;99.90;;;;;;5098650;28;20024;-70
2021/12/19 04:07:21;;;;;;;44.20;31.10;;;4.70;99.90;;;;;;5097457;28;20108;-71
2021/12/19 04:09:47;;;;;;;44.03;31.13;;;4.60;99.90;;;;;;5102501;28;20031;-71
2021/12/19 04:12:13;;;;;;;40.55;29.42;;;4.60;99.90;;;;;;5094035;28;20023;-70
2021/12/19 04:14:39;;;;;;;41.75;30.20;;;4.50;99.90;;;;;;5089039;28;20024;-73
2021/12/19 04:17:05;;;;;;;45.53;27.95;;;4.40;99.90;;;;;;5084008;28;20120;-71
2021/12/19 04:19:31;;;;;;;44.17;32.35;;;4.40;99.90;;;;;;5095348;28;20035;-71
2021/12/19 04:21:58;;;;;;;42.22;30.48;;;4.50;99.90;;;;;;5107043;28;20076;-71
2021/12/19 04:24:23;;;;;;;52.65;31.48;;;4.60;99.90;;;;;;5105501;28;20020;-71
2021/12/19 04:26:49;;;;;;;36.38;29.02;;;4.60;99.90;;;;;;5102427;28;20481;-71
2021/12/19 04:29:15;;;;;;;46.05;30.38;;;4.60;99.90;;;;;;5100945;28;20024;-70
2021/12/19 04:31:41;;;;;;;48.55;32.55;;;4.50;99.90;;;;;;5093900;28;20381;-70
2021/12/19 04:34:07;;;;;;;53.80;35.08;;;4.40;99.90;;;;;;5100417;28;20369;-70
2021/12/19 04:36:38;;;;;;;47.05;32.25;;;4.40;99.90;;;;;;5091320;28;20566;-72
2021/12/19 04:50:48;;;;;;;47.85;32.40;;;4.50;99.90;;;;;;5100893;28;20358;-70
2021/12/19 05:00:09;;;;;;;58.47;34.03;;;4.30;99.90;;;;;;5091435;28;20464;-70
2021/12/19 05:15:58;;;;;;;;;;;4.00;99.90;;;;;;5100451;28;20104;-70
2021/12/19 05:18:27;;;;;;;;;;;4.00;99.90;;;;;;5093351;28;19999;-71
2021/12/19 05:21:00;;;;;;;;;;;3.90;99.90;;;;;;5103924;28;19908;-71
2021/12/19 05:25:58;;;;;;;;;;;3.80;99.90;;;;;;5102892;28;20064;-70
2021/12/19 05:28:23;;;;;;;;;;;3.90;99.90;;;;;;5097586;28;19915;-71
2021/12/19 05:30:49;;;;;;;;;;;3.80;99.90;;;;;;5093345;28;19908;-72
2021/12/19 05:33:15;;;;;;;;;;;3.90;99.90;;;;;;5088132;28;19939;-71
2021/12/19 05:46:54;;;;;;;;;;;4.00;99.90;;;;;;5052885;28;19927;-73
2021/12/19 05:49:19;;;;;;;;;;;4.00;99.90;;;;;;5075521;28;19908;-71
2021/12/19 05:51:46;;;;;;;;;;;4.00;99.90;;;;;;5101418;28;19908;-71
2021/12/19 05:54:12;;;;;;;;;;;4.10;99.90;;;;;;5097139;28;20461;-73
2021/12/19 05:56:38;;;;;;;;;;;4.10;99.90;;;;;;5086605;28;20003;-70
2021/12/19 05:59:04;;;;;;;;;;;4.10;99.90;;;;;;5095754;28;20049;-71
2021/12/19 06:01:29;;;;;;;;;;;4.20;99.90;;;;;;5099712;28;19911;-70
2021/12/19 06:03:55;;;;;;;;;;;4.10;99.90;;;;;;5094720;28;19972;-73
2021/12/19 06:06:20;;;;;;;;;;;4.20;99.90;;;;;;5097179;28;19916;-70
2021/12/19 06:08:46;;;;;;;;;;;4.20;99.90;;;;;;5092993;28;19912;-70
2021/12/19 06:11:12;;;;;;;;;;;4.20;99.90;;;;;;5099508;28;19907;-71
2021/12/19 06:13:38;;;;;;;;;;;4.30;99.90;;;;;;5088575;28;19912;-70
2021/12/19 06:16:04;;;;;;;;;;;4.20;99.90;;;;;;5100754;28;19914;-71
2021/12/19 06:18:30;;;;;;;;;;;4.20;99.90;;;;;;5091434;28;19908;-70
2021/12/19 06:20:55;;;;;;;;;;;4.30;99.90;;;;;;5104191;28;20289;-71
2021/12/19 06:23:21;;;;;;;;;;;4.20;99.90;;;;;;5090001;28;19964;-70
2021/12/19 06:25:46;;;;;;;;;;;4.30;99.90;;;;;;5095254;28;19927;-71
2021/12/19 06:28:16;;;;;;;;;;;4.10;99.90;;;;;;5102374;28;19983;-72
2021/12/19 06:30:42;;;;;;;;;;;4.00;99.90;;;;;;5090202;28;19908;-72
2021/12/19 06:33:07;;;;;;;;;;;3.90;99.90;;;;;;5089154;28;20250;-71
2021/12/19 06:35:33;;;;;;;;;;;3.90;99.90;;;;;;5082220;28;20011;-71
2021/12/19 06:37:58;;;;;;;;;;;3.90;99.90;;;;;;5070935;28;19904;-71
2021/12/19 06:40:24;;;;;;;;;;;3.90;99.90;;;;;;5068921;28;19940;-70
2021/12/19 06:42:50;;;;;;;;;;;3.90;99.90;;;;;;5070257;28;19904;-71
2021/12/19 06:45:16;;;;;;;;;;;3.90;99.90;;;;;;5071794;28;19916;-71
2021/12/19 06:47:41;;;;;;;;;;;3.90;99.90;;;;;;5069786;28;19909;-71
2021/12/19 06:50:08;;;;;;;;;;;4.00;99.90;;;;;;5079420;28;20003;-73
2021/12/19 06:52:34;;;;;;;;;;;4.00;99.90;;;;;;5090479;28;19904;-67
2021/12/19 06:55:00;;;;;;;;;;;4.00;99.90;;;;;;5091348;28;20314;-68
2021/12/19 06:57:25;;;;;;;;;;;4.00;99.90;;;;;;5083386;28;19948;-68
2021/12/19 06:59:51;;;;;;;;;;;4.10;99.90;;;;;;5070035;28;19947;-68
2021/12/19 07:02:17;;;;;;;;;;;4.10;99.90;;;;;;5071228;28;20352;-69
2021/12/19 07:04:43;;;;;;;;;;;4.10;99.90;;;;;;5074362;28;20285;-69
2021/12/19 07:07:09;;;;;;;;;;;4.10;99.90;;;;;;5070639;28;19919;-68
2021/12/19 07:09:34;;;;;;;;;;;4.10;99.90;;;;;;5071217;28;20010;-67
2021/12/19 07:12:00;;;;;;;;;;;4.10;99.90;;;;;;5090005;28;19907;-67
2021/12/19 07:14:26;;;;;;;;;;;4.00;99.90;;;;;;5089539;28;19904;-68
2021/12/19 07:16:51;;;;;;;;;;;4.00;99.90;;;;;;5088674;28;19957;-68
2021/12/19 07:19:17;;;;;;;;;;;4.10;99.90;;;;;;5090578;28;20266;-68
2021/12/19 07:21:42;;;;;;;;;;;4.10;99.90;;;;;;5083601;28;19931;-69
2021/12/19 07:24:08;;;;;;;;;;;4.10;99.90;;;;;;5086620;28;19916;-68
2021/12/19 07:26:33;;;;;;;;;;;4.00;99.90;;;;;;5095239;28;20318;-68
2021/12/19 07:28:59;;;;;;;;;;;4.00;99.90;;;;;;5079919;28;19915;-67
2021/12/19 07:31:29;;;;;;;;;;;4.00;99.90;;;;;;5074240;28;19908;-68
2021/12/19 07:33:55;;;;;;;;;;;4.00;99.90;;;;;;5074365;28;20424;-69
2021/12/19 07:36:24;;;;;;;;;;;4.10;99.90;;;;;;5081107;28;19908;-68
2021/12/19 07:38:55;;;;;;;;;;;4.10;99.90;;;;;;5091792;28;19927;-67
2021/12/19 07:41:20;;;;;;;;;;;4.10;99.90;;;;;;5073844;28;19904;-68
2021/12/19 07:43:46;;;;;;;;;;;4.20;99.90;;;;;;5074117;28;19997;-68
2021/12/19 07:46:12;;;;;;;;;;;4.30;99.90;;;;;;5074478;28;19908;-67
2021/12/19 07:48:37;;;;;;;;;;;4.30;99.90;;;;;;5074700;28;20729;-68
2021/12/19 07:51:03;;;;;;;;;;;4.40;99.90;;;;;;5084443;28;19966;-70
2021/12/19 07:53:28;;;;;;;;;;;4.40;99.90;;;;;;5073039;28;19908;-67
2021/12/19 07:55:55;;;;;;;;;;;4.50;99.90;;;;;;5087439;28;19907;-67
2021/12/19 07:58:20;;;;;;;;;;;4.50;99.90;;;;;;5093714;28;20388;-67
2021/12/19 08:00:46;;;;;;;;;;;4.50;99.90;;;;;;5093480;28;20055;-66
2021/12/19 08:03:11;;;;;;;;;;;4.70;99.90;;;;;;5093230;28;19908;-66
2021/12/19 08:05:37;;;;;;;;;;;4.80;99.90;;;;;;5095034;28;19912;-66
2021/12/19 08:08:04;;;;;;;;;;;5.00;99.90;;;;;;5105151;28;19968;-66
2021/12/19 08:13:00;;;;;;;;;;;5.20;99.90;;;;;;5074026;28;19908;-65
2021/12/19 08:15:25;;;;;;;;;;;5.10;99.90;;;;;;5073201;28;19905;-66
2021/12/19 08:17:51;;;;;;;;;;;5.20;99.90;;;;;;5073535;28;19958;-64
2021/12/19 08:20:17;;;;;;;;;;;5.40;99.90;;;;;;5073130;28;20381;-65
2021/12/19 08:22:50;;;;;;;;;;;5.60;99.90;;;;;;5073245;28;19939;-65
2021/12/19 08:25:16;;;;;;;;;;;5.50;99.90;;;;;;5074455;28;19954;-67
2021/12/19 08:27:41;;;;;;;;;;;5.50;99.90;;;;;;5092582;28;19951;-65
2021/12/19 08:30:09;;;;;;;;;;;5.60;99.90;;;;;;5098232;28;19973;-66
2021/12/19 08:32:35;;;;;;;;;;;5.70;99.90;;;;;;5097361;28;19911;-65
2021/12/19 08:35:01;;;;;;;;;;;5.70;99.90;;;;;;5089361;28;19914;-66
2021/12/19 08:37:27;;;;;;;;;;;5.90;99.90;;;;;;5094113;28;19907;-67
2021/12/19 08:39:52;;;;;;;;;;;6.20;99.90;;;;;;5089016;28;19912;-66
2021/12/19 08:42:18;;;;;;;;;;;6.30;99.90;;;;;;5079332;28;19912;-65
2021/12/19 08:44:44;;;;;;;;;;;6.40;99.90;;;;;;5104854;28;20318;-66
2021/12/19 08:47:10;;;;;;;;;;;6.50;99.90;;;;;;5072403;28;19954;-66
2021/12/19 08:49:35;;;;;;;;;;;6.60;99.90;;;;;;5070981;28;20387;-67
2021/12/19 08:52:02;;;;;;;;;;;6.70;99.90;;;;;;5072501;28;19919;-66
2021/12/19 08:54:28;;;;;;;;;;;6.70;99.90;;;;;;5072933;28;20281;-66
2021/12/19 08:56:53;;;;;;;;;;;6.90;99.90;;;;;;5088537;28;19907;-65
2021/12/19 08:59:19;;;;;;;;;;;7.10;99.90;;;;;;5092431;28;19919;-66
2021/12/19 09:01:45;;;;;;;;;;;7.30;99.90;;;;;;5092127;28;19908;-66
2021/12/19 09:04:10;;;;;;;;;;;7.30;99.90;;;;;;5074902;28;20016;-65
2021/12/19 09:06:36;;;;;;;;;;;7.40;99.90;;;;;;5091784;28;19908;-66
2021/12/19 09:09:03;;;;;;;;;;;7.50;99.90;;;;;;5091630;28;19935;-65
2021/12/19 09:11:29;;;;;;;;;;;8.00;99.90;;;;;;5092230;28;19904;-67
2021/12/19 09:13:54;;;;;;;;;;;8.00;99.90;;;;;;5091262;28;19961;-67
2021/12/19 09:16:20;;;;;;;;;;;8.10;99.90;;;;;;5072281;28;19963;-68
2021/12/19 09:18:45;;;;;;;;;;;8.30;99.90;;;;;;5084305;28;19908;-68
2021/12/19 09:21:11;;;;;;;;;;;8.50;99.90;;;;;;5074080;28;19994;-67
2021/12/19 09:23:36;;;;;;;;;;;8.60;99.90;;;;;;5072086;28;19910;-69
2021/12/19 09:26:03;;;;;;;;;;;8.60;99.90;;;;;;5073367;28;19943;-67
2021/12/19 09:28:28;;;;;;;;;;;8.60;99.90;;;;;;5086429;28;19915;-66
2021/12/19 09:30:54;;;;;;;;;;;8.50;99.90;;;;;;5091497;28;19904;-67
2021/12/19 09:33:20;;;;;;;;;;;8.50;99.90;;;;;;5091474;28;19904;-67
2021/12/19 09:35:45;;;;;;;;;;;8.60;99.90;;;;;;5082549;28;19909;-66
2021/12/19 09:38:11;;;;;;;;;;;8.70;99.90;;;;;;5084233;28;20233;-68
2021/12/19 09:40:38;;;;;;;;;;;8.70;99.90;;;;;;5091441;28;19915;-68
2021/12/19 09:43:05;;;;;;;;;;;8.60;99.90;;;;;;5090858;28;20036;-67
2021/12/19 09:45:32;;;;;;;;;;;8.40;99.90;;;;;;5088747;28;19912;-67
2021/12/19 09:47:58;;;;;;;;;;;8.30;99.90;;;;;;5090979;28;19904;-67
2021/12/19 09:50:24;;;;;;;;;;;8.20;99.90;;;;;;5089628;28;20006;-68
2021/12/19 09:52:50;;;;;;;;;;;8.10;99.90;;;;;;5090623;28;19957;-68
2021/12/19 09:55:18;;;;;;;;;;;8.00;99.90;;;;;;5086958;28;19912;-67
2021/12/19 09:57:44;;;;;;;;;;;8.10;99.90;;;;;;5089798;28;20044;-66
2021/12/19 10:00:10;;;;;;;;;;;8.10;99.90;;;;;;5089924;28;20381;-67
2021/12/19 10:02:35;;;;;;;;;;;8.10;99.90;;;;;;5086624;28;19990;-66
2021/12/19 10:05:21;;;;;;;;;;;8.10;99.90;;;;;;5088363;28;20260;-66
2021/12/19 10:07:51;;;;;;;;;;;8.10;99.90;;;;;;5081942;28;19920;-65
2021/12/19 10:10:27;;;;;;;;;;;8.20;99.90;;;;;;5090139;28;19947;-66
2021/12/19 10:12:54;;;;;;;;;;;8.10;99.90;;;;;;5085347;28;19920;-68
2021/12/19 10:15:22;;;;;;;;;;;8.10;99.90;;;;;;5086768;28;19908;-68
2021/12/19 10:17:57;;;;;;;;;;;8.10;99.90;;;;;;5087674;28;20162;-68
2021/12/19 10:20:23;;;;;;;;;;;8.10;99.90;;;;;;5088653;28;20432;-68
2021/12/19 10:22:48;;;;;;;;;;;8.20;99.90;;;;;;5086209;28;20002;-66
2021/12/19 10:25:25;;;;;;;;;;;8.30;99.90;;;;;;5091684;28;19951;-67
2021/12/19 10:27:57;;;;;;;;;;;8.30;99.90;;;;;;5086360;28;19908;-67
2021/12/19 10:30:26;;;;;;;;;;;8.20;99.90;;;;;;5086649;28;19915;-66
2021/12/19 10:32:56;;;;;;;;;;;8.20;99.90;;;;;;5087711;28;19908;-67
2021/12/19 10:35:24;;;;;;;;;;;8.20;99.90;;;;;;5084912;28;19916;-67
2021/12/19 10:37:50;;;;;;;;;;;8.20;99.90;;;;;;5092686;28;20003;-69
2021/12/19 10:40:15;;;;;;;;;;;8.20;99.90;;;;;;5086335;28;19930;-66
2021/12/19 10:43:01;;;;;;;;;;;8.20;99.90;;;;;;5086536;28;19912;-66
2021/12/19 10:45:32;;;;;;;;;;;8.30;99.90;;;;;;5074418;28;19962;-67
2021/12/19 10:48:16;;;;;;;;;;;8.30;99.90;;;;;;5076207;28;19908;-66
2021/12/19 10:50:53;;;;;;;;;;;8.20;99.90;;;;;;5082009;28;19996;-68
2021/12/19 10:53:23;;;;;;;;;;;8.30;99.90;;;;;;5087447;28;19944;-67
2021/12/19 10:55:49;;;;;;;;;;;8.40;99.90;;;;;;5083935;28;19970;-69
2021/12/19 10:58:20;;;;;;;;;;;8.40;99.90;;;;;;5095210;28;19904;-68
2021/12/19 11:01:04;;;;;;;;;;;8.40;99.90;;;;;;5086092;28;19958;-67
2021/12/19 11:03:47;;;;;;;;;;;8.40;99.90;;;;;;5075395;28;19978;-66
2021/12/19 11:06:20;;;;;;;;;;;8.40;99.90;;;;;;5082469;28;20070;-66
2021/12/19 11:08:46;;;;;;;;;;;8.30;99.90;;;;;;5094133;28;19948;-66
2021/12/19 11:11:13;;;;;;;;;;;8.20;99.90;;;;;;5093238;28;19998;-68
2021/12/19 11:13:38;;;;;;;;;;;8.20;99.90;;;;;;5093118;28;19915;-66
2021/12/19 11:16:04;;;;;;;;;;;8.20;99.90;;;;;;5092108;28;19915;-69
2021/12/19 11:18:30;;;;;;;;;;;8.30;99.90;;;;;;5075053;28;19943;-66
2021/12/19 11:20:56;;;;;;;;;;;8.30;99.90;;;;;;5107543;28;19926;-66
2021/12/19 11:23:22;;;;;;;;;;;8.30;99.90;;;;;;5086057;28;19912;-68
2021/12/19 11:25:48;;;;;;;;;;;8.20;99.90;;;;;;5074937;28;19913;-67
2021/12/19 11:28:14;;;;;;;;;;;8.20;99.90;;;;;;5080780;28;19954;-69
2021/12/19 11:30:39;;;;;;;;;;;8.20;99.90;;;;;;5086795;28;19908;-66
2021/12/19 11:33:08;;;;;;;;;;;8.20;99.90;;;;;;5074537;28;19961;-67
2021/12/19 11:35:36;;;;;;;;;;;8.40;99.90;;;;;;5078711;28;19939;-64
2021/12/19 11:38:04;;;;;;;;;;;8.40;99.90;;;;;;5098551;28;19966;-64
2021/12/19 11:40:32;;;;;;;;;;;8.50;99.90;;;;;;5097401;28;20329;-66
2021/12/19 11:43:01;;;;;;;;;;;8.50;99.90;;;;;;5084708;28;19913;-67
2021/12/19 11:45:37;;;;;;;;;;;8.50;99.90;;;;;;5081662;28;19916;-67
2021/12/19 11:48:34;;;;;;;;;;;8.60;99.90;;;;;;5094207;28;19911;-66
2021/12/19 11:51:01;;;;;;;;;;;8.60;99.90;;;;;;5094674;28;19908;-68
2021/12/19 11:53:28;;;;;;;;;;;8.60;99.90;;;;;;5092958;28;19992;-68
2021/12/19 11:55:55;;;;;;;;;;;8.60;99.90;;;;;;5085727;28;19908;-68
2021/12/19 11:58:25;;;;;;;;;;;8.60;99.90;;;;;;5093619;28;19912;-67
2021/12/19 12:00:51;;;;;;;;;;;8.60;99.90;;;;;;5094001;28;20413;-68
2021/12/19 12:03:17;;;;;;;;;;;8.50;99.90;;;;;;5078285;28;20003;-68
2021/12/19 12:05:43;;;;;;;;;;;8.50;99.90;;;;;;5093079;28;19918;-67
2021/12/19 12:08:09;;;;;;;;;;;8.50;99.90;;;;;;5091908;28;20060;-68
2021/12/19 12:10:54;;;;;;;;;;;8.40;99.90;;;;;;5078775;28;20335;-66
2021/12/19 12:13:33;;;;;;;;;;;8.30;99.90;;;;;;5088423;28;19994;-65
2021/12/19 12:18:44;;;;;;;;;;;8.20;99.90;;;;;;5079885;28;20170;-66
2021/12/19 12:22:00;;;;;;;;;;;8.10;99.90;;;;;;5073387;28;19946;-67
2021/12/19 12:24:14;;;;;;;;;;;8.00;99.90;;;;;;5084315;28;19912;-68
2021/12/19 12:26:50;;;;;;;;;;;7.90;99.90;;;;;;5095364;28;19954;-68
2021/12/19 12:29:15;;;;;;;;;;;7.80;99.90;;;;;;5091876;28;19911;-68
2021/12/19 12:31:42;;;;;;;;;;;7.80;99.90;;;;;;5082337;28;19909;-65
2021/12/19 12:34:09;;;;;;;;;;;7.80;99.90;;;;;;5085454;28;19915;-66
2021/12/19 12:36:35;;;;;;;;;;;7.90;99.90;;;;;;5077311;28;19915;-68
2021/12/19 12:39:05;;;;;;;;;;;8.00;99.90;;;;;;5089378;28;19915;-69
2021/12/19 12:41:50;;;;;;;;;;;8.10;99.90;;;;;;5092221;28;20392;-65
2021/12/19 12:44:17;;;;;;;;;;;8.20;99.90;;;;;;5082810;28;19912;-67
2021/12/19 12:46:43;;;;;;;;;;;8.20;99.90;;;;;;5089685;28;19908;-68
2021/12/19 12:49:12;;;;;;;;;;;8.20;99.90;;;;;;5083093;28;19988;-68
2021/12/19 12:51:42;;;;;;;;;;;8.10;99.90;;;;;;5075247;28;20033;-67
2021/12/19 12:54:09;;;;;;;;;;;8.00;99.90;;;;;;5077748;28;19913;-65
2021/12/19 12:56:39;;;;;;;;;;;8.10;99.90;;;;;;5082367;28;19915;-66
2021/12/19 12:59:05;;;;;;;;;;;8.10;99.90;;;;;;5075168;28;20002;-69
2021/12/19 13:01:37;;;;;;;;;;;8.10;99.90;;;;;;5087271;28;19911;-68
2021/12/19 13:04:06;;;;;;;;;;;8.20;99.90;;;;;;5095176;28;19904;-67
2021/12/19 13:06:45;;;;;;;;;;;8.20;99.90;;;;;;5092718;28;20382;-67
2021/12/19 13:09:26;;;;;;;;;;;8.20;99.90;;;;;;5092685;28;19931;-69
2021/12/19 13:12:30;;;;;;;;;;;8.20;99.90;;;;;;5091373;28;20362;-66
2021/12/19 13:14:58;;;;;;;;;;;8.20;99.90;;;;;;5050648;28;19971;-68
2021/12/19 13:17:28;;;;;;;;;;;8.10;99.90;;;;;;5070004;28;20412;-67
2021/12/19 13:19:53;;;;;;;;;;;8.00;99.90;;;;;;5078570;28;20316;-68
2021/12/19 13:22:24;;;;;;;;;;;8.00;99.90;;;;;;5077919;28;19908;-68
2021/12/19 13:24:50;;;;;;;;;;;8.10;99.90;;;;;;5071814;28;19912;-67
2021/12/19 13:27:21;;;;;;;;;;;8.00;99.90;;;;;;5072014;28;19904;-68
2021/12/19 13:30:25;;;;;;;;;;;8.10;99.90;;;;;;5086723;28;19908;-66
2021/12/19 13:32:52;;;;;;;;;;;8.10;99.90;;;;;;5069293;28;19904;-69
2021/12/19 13:35:37;;;;;;;;;;;8.10;99.90;;;;;;5069181;28;19915;-67
2021/12/19 13:38:02;;;;;;;;;;;8.10;99.90;;;;;;5083123;28;19904;-67
2021/12/19 13:40:29;;;;;;;;;;;8.10;99.90;;;;;;5092015;28;20349;-65
2021/12/19 13:42:57;;;;;;;;;;;8.00;99.90;;;;;;5077177;28;19908;-67
2021/12/19 13:45:24;;;;;;;;;;;8.00;99.90;;;;;;5091021;28;19915;-66
2021/12/19 13:47:50;;;;;;;;;;;7.90;99.90;;;;;;5092085;28;19915;-68
2021/12/19 13:50:15;;;;;;;;;;;7.80;99.90;;;;;;5078667;28;19908;-66
2021/12/19 13:52:41;;;;;;;;;;;7.80;99.90;;;;;;5090580;28;19962;-65
2021/12/19 13:55:09;;;;;;;;;;;7.80;99.90;;;;;;5090235;28;19908;-65
2021/12/19 13:57:35;;;;;;;;;;;7.90;99.90;;;;;;5081540;28;19958;-67
2021/12/19 14:00:02;;;;;;;;;;;7.90;99.90;;;;;;5087783;28;19935;-66
2021/12/19 14:02:34;;;;;;;;;;;7.80;99.90;;;;;;5091262;28;19908;-68
2021/12/19 14:04:59;;;;;;;;;;;7.80;99.90;;;;;;5091249;28;20003;-67
2021/12/19 14:07:28;;;;;;;;;;;7.70;99.90;;;;;;5091457;28;20396;-67
2021/12/19 14:10:02;;;;;;;;;;;7.70;99.90;;;;;;5089580;28;19923;-66
2021/12/19 14:12:51;;;;;;;;;;;7.70;99.90;;;;;;5091468;28;19941;-68
2021/12/19 14:15:15;;;;;;;;;;;7.80;99.90;;;;;;5078397;28;19908;-67
2021/12/19 14:17:41;;;;;;;;;;;7.70;99.90;;;;;;5087712;28;19915;-68
2021/12/19 14:20:07;;;;;;;;;;;7.60;99.90;;;;;;5097851;28;19916;-67
2021/12/19 14:22:32;;;;;;;;;;;7.60;99.90;;;;;;5091001;28;19904;-68
2021/12/19 14:24:59;;;;;;;;;;;7.60;99.90;;;;;;5090855;28;19908;-66
2021/12/19 14:27:27;;;;;;;;;;;7.70;99.90;;;;;;5080332;28;20285;-67
2021/12/19 14:29:59;;;;;;;;;;;7.70;99.90;;;;;;5090526;28;19904;-68
2021/12/19 14:32:29;;;;;;;;;;;7.70;99.90;;;;;;5091775;28;20365;-68
2021/12/19 14:34:56;;;;;;;;;;;7.70;99.90;;;;;;5090612;28;20011;-68
2021/12/19 14:37:25;;;;;;;;;;;7.70;99.90;;;;;;5088554;28;19923;-67
2021/12/19 14:40:03;;;;;;;;;;;7.60;99.90;;;;;;5108449;27;20369;-67
2021/12/19 14:42:33;;;;;;;;;;;7.80;99.90;;;;;;5090798;28;19904;-66
2021/12/19 14:45:00;;;;;;;;;;;7.80;99.90;;;;;;5072205;28;20015;-66
2021/12/19 14:47:44;;;;;;;;;;;7.80;99.90;;;;;;5072531;28;19904;-66
2021/12/19 14:50:13;;;;;;;;;;;7.90;99.90;;;;;;5072041;28;19955;-66
2021/12/19 14:52:39;;;;;;;;;;;7.80;99.90;;;;;;5070799;28;19908;-69
2021/12/19 14:55:11;;;;;;;;;;;7.80;99.90;;;;;;5070449;28;19905;-67
2021/12/19 14:57:37;;;;;;;;;;;7.80;99.90;;;;;;5070215;28;20070;-67
2021/12/19 15:00:04;;;;;;;;;;;7.80;99.90;;;;;;5070209;28;19919;-67
2021/12/19 15:02:30;;;;;;;;;;;7.80;99.90;;;;;;5098635;28;20365;-66
2021/12/19 15:04:55;;;;;;;;;;;7.80;99.90;;;;;;5109669;28;19935;-66
2021/12/19 15:07:25;;;;;;;;;;;7.70;99.90;;;;;;5070297;28;19908;-65
2021/12/19 15:09:50;;;;;;;;;;;7.70;99.90;;;;;;5086453;28;19908;-67
2021/12/19 15:12:16;;;;;;;;;;;7.80;99.90;;;;;;5095659;28;19973;-67
2021/12/19 15:14:42;;;;;;;;;;;7.80;99.90;;;;;;5090146;28;19904;-65